createdAt,value
2018-09-05T00:00:43.719Z,73.67
2018-09-05T00:01:47.936Z,75.28
2018-09-05T00:02:52.330Z,63.70
2018-09-05T00:03:56.489Z,65.22
2018-09-05T00:05:01.144Z,74.22
2018-09-05T00:06:05.449Z,75.83
2018-09-05T00:07:09.677Z,68.47
2018-09-05T00:08:13.877Z,64.45
2018-09-05T00:09:18.090Z,67.72
2018-09-05T00:10:22.314Z,80.17
2018-09-05T00:11:26.470Z,67.67
2018-09-05T00:12:30.810Z,76.37
2018-09-05T00:13:34.994Z,68.47
2018-09-05T00:14:39.176Z,66.85
2018-09-05T00:15:43.322Z,71.28
2018-09-05T00:16:47.524Z,67.92
2018-09-05T00:17:51.679Z,70.92
2018-09-05T00:18:56.043Z,71.53
2018-09-05T00:20:00.283Z,68.22
2018-09-05T00:21:04.445Z,73.37
2018-09-05T00:22:08.605Z,70.25
2018-09-05T00:23:13.020Z,75.80
2018-09-05T00:24:17.197Z,66.55
2018-09-05T00:25:21.443Z,73.90
2018-09-05T00:26:25.727Z,71.97
2018-09-05T00:27:29.940Z,76.87
2018-09-05T00:28:34.170Z,82.72
2018-09-05T00:29:38.415Z,78.75
2018-09-05T00:30:42.576Z,79.32
2018-09-05T00:31:46.735Z,81.63
2018-09-05T00:32:50.947Z,83.50
2018-09-05T00:33:55.306Z,84.28
2018-09-05T00:34:59.554Z,84.10
2018-09-05T00:36:03.888Z,92.37
2018-09-05T00:37:08.195Z,81.12
2018-09-05T00:38:12.326Z,85.17
2018-09-05T00:39:16.530Z,79.30
2018-09-05T00:40:20.850Z,89.87
2018-09-05T00:41:25.133Z,81.63
2018-09-05T00:42:29.301Z,84.50
2018-09-05T00:43:33.528Z,90.53
2018-09-05T00:44:37.662Z,87.22
2018-09-05T00:45:42.168Z,79.00
2018-09-05T00:46:46.477Z,88.55
2018-09-05T00:47:50.672Z,85.87
2018-09-05T00:48:55.168Z,83.42
2018-09-05T00:49:59.776Z,73.65
2018-09-05T00:51:04.015Z,78.07
2018-09-05T00:52:08.259Z,87.88
2018-09-05T00:53:12.434Z,79.22
2018-09-05T00:54:16.705Z,80.30
2018-09-05T00:55:20.871Z,70.28
2018-09-05T00:56:25.035Z,74.32
2018-09-05T00:57:29.307Z,81.53
2018-09-05T00:58:33.554Z,89.22
2018-09-05T00:59:37.907Z,81.92
2018-09-05T01:00:42.073Z,72.12
2018-09-05T01:01:46.276Z,77.32
2018-09-05T01:02:50.500Z,87.22
2018-09-05T01:03:54.662Z,81.95
2018-09-05T01:04:58.897Z,81.15
2018-09-05T01:06:03.375Z,79.75
2018-09-05T01:07:18.743Z,72.35
2018-09-05T01:08:22.903Z,90.83
2018-09-05T01:09:27.283Z,103.00
2018-09-05T01:10:31.473Z,105.95
2018-09-05T01:11:35.681Z,105.37
2018-09-05T01:12:39.971Z,105.20
2018-09-05T01:13:44.198Z,97.35
2018-09-05T01:14:49.264Z,98.20
2018-09-05T01:15:53.466Z,97.55
2018-09-05T01:16:57.631Z,104.45
2018-09-05T01:18:02.000Z,108.85
2018-09-05T01:19:06.214Z,96.85
2018-09-05T01:20:10.653Z,105.63
2018-09-05T01:21:14.899Z,96.53
2018-09-05T01:22:19.147Z,103.42
2018-09-05T01:23:23.428Z,107.03
2018-09-05T01:24:28.010Z,107.32
2018-09-05T01:25:32.159Z,107.03
2018-09-05T01:26:36.331Z,101.25
2018-09-05T01:27:40.535Z,112.57
2018-09-05T01:28:44.787Z,124.15
2018-09-05T01:29:49.325Z,121.75
2018-09-05T01:30:53.550Z,115.30
2018-09-05T01:31:57.750Z,117.37
2018-09-05T01:33:01.929Z,121.33
2018-09-05T01:34:06.127Z,113.00
2018-09-05T01:35:10.554Z,111.88
2018-09-05T01:36:16.352Z,110.78
2018-09-05T01:37:20.507Z,109.15
2018-09-05T01:38:24.982Z,112.92
2018-09-05T01:39:29.236Z,103.72
2018-09-05T01:40:33.443Z,116.30
2018-09-05T01:41:37.707Z,100.95
2018-09-05T01:42:41.850Z,94.22
2018-09-05T01:43:46.118Z,108.52
2018-09-05T01:44:50.353Z,114.65
2018-09-05T01:45:54.687Z,98.12
2018-09-05T01:46:59.102Z,101.60
2018-09-05T01:48:03.288Z,101.12
2018-09-05T01:49:07.465Z,103.50
2018-09-05T01:50:11.788Z,100.45
2018-09-05T01:51:15.944Z,102.40
2018-09-05T01:52:20.095Z,111.85
2018-09-05T01:53:24.297Z,106.60
2018-09-05T01:54:28.492Z,114.57
2018-09-05T01:55:32.734Z,106.78
2018-09-05T01:56:36.909Z,108.87
2018-09-05T01:57:41.150Z,104.00
2018-09-05T01:58:45.377Z,100.20
2018-09-05T01:59:49.606Z,108.75
2018-09-05T02:00:53.837Z,93.78
2018-09-05T02:01:58.021Z,96.60
2018-09-05T02:03:03.088Z,104.17
2018-09-05T02:04:07.476Z,101.10
2018-09-05T02:05:11.939Z,98.27
2018-09-05T02:06:16.166Z,100.35
2018-09-05T02:07:20.476Z,98.97
2018-09-05T02:08:24.872Z,115.28
2018-09-05T02:09:29.090Z,96.30
2018-09-05T02:10:33.294Z,94.90
2018-09-05T02:11:37.494Z,105.00
2018-09-05T02:12:41.702Z,94.58
2018-09-05T02:13:46.388Z,97.35
2018-09-05T02:14:50.659Z,95.67
2018-09-05T02:15:54.863Z,92.27
2018-09-05T02:16:59.106Z,102.67
2018-09-05T02:18:03.401Z,102.70
2018-09-05T02:19:07.606Z,103.25
2018-09-05T02:20:11.800Z,103.58
2018-09-05T02:21:16.012Z,103.92
2018-09-05T02:22:20.222Z,91.97
2018-09-05T02:23:24.398Z,107.83
2018-09-05T02:24:28.569Z,102.05
2018-09-05T02:25:32.884Z,104.25
2018-09-05T02:26:37.099Z,96.97
2018-09-05T02:27:41.475Z,102.07
2018-09-05T02:28:45.683Z,97.22
2018-09-05T02:29:49.909Z,98.55
2018-09-05T02:30:54.336Z,103.38
2018-09-05T02:31:58.627Z,96.70
2018-09-05T02:33:02.890Z,96.22
2018-09-05T02:34:07.137Z,99.13
2018-09-05T02:35:11.311Z,98.10
2018-09-05T02:36:15.477Z,89.65
2018-09-05T02:37:19.695Z,96.00
2018-09-05T02:38:23.889Z,86.32
2018-09-05T02:39:28.060Z,100.90
2018-09-05T02:40:32.324Z,97.37
2018-09-05T02:41:36.679Z,94.25
2018-09-05T02:42:40.865Z,86.35
2018-09-05T02:43:50.435Z,91.92
2018-09-05T02:44:54.634Z,86.72
2018-09-05T02:45:59.162Z,90.20
2018-09-05T02:47:03.646Z,87.02
2018-09-05T02:48:07.842Z,88.62
2018-09-05T02:49:12.040Z,76.22
2018-09-05T02:50:16.293Z,87.20
2018-09-05T02:51:20.465Z,78.62
2018-09-05T02:52:24.686Z,85.40
2018-09-05T02:53:28.892Z,89.42
2018-09-05T02:54:33.075Z,86.20
2018-09-05T02:55:42.505Z,91.28
2018-09-05T02:56:46.662Z,88.52
2018-09-05T02:57:50.818Z,83.22
2018-09-05T02:58:55.029Z,84.83
2018-09-05T02:59:59.223Z,84.03
2018-09-05T03:01:03.488Z,73.22
2018-09-05T03:02:07.643Z,88.05
2018-09-05T03:03:11.836Z,82.70
2018-09-05T03:04:16.147Z,86.25
2018-09-05T03:05:20.518Z,89.05
2018-09-05T03:06:24.791Z,78.42
2018-09-05T03:07:28.964Z,76.30
2018-09-05T03:08:33.131Z,97.05
2018-09-05T03:09:37.743Z,76.40
2018-09-05T03:10:41.934Z,82.82
2018-09-05T03:11:46.109Z,83.50
2018-09-05T03:12:50.241Z,79.77
2018-09-05T03:13:54.421Z,81.45
2018-09-05T03:14:59.155Z,85.95
2018-09-05T03:16:03.438Z,82.30
2018-09-05T03:17:07.690Z,88.35
2018-09-05T03:18:12.143Z,78.12
2018-09-05T03:19:16.307Z,82.80
2018-09-05T03:20:20.553Z,87.37
2018-09-05T03:21:24.928Z,84.15
2018-09-05T03:22:29.186Z,88.65
2018-09-05T03:23:33.410Z,85.53
2018-09-05T03:24:37.607Z,94.05
2018-09-05T03:25:41.799Z,101.20
2018-09-05T03:26:46.219Z,91.00
2018-09-05T03:27:50.369Z,91.45
2018-09-05T03:28:54.557Z,93.82
2018-09-05T03:29:58.755Z,89.50
2018-09-05T03:31:02.946Z,90.72
2018-09-05T03:32:07.189Z,93.30
2018-09-05T03:33:11.420Z,93.30
2018-09-05T03:34:15.516Z,90.40
2018-09-05T03:35:19.709Z,94.65
2018-09-05T03:36:23.939Z,94.97
2018-09-05T03:37:28.194Z,99.15
2018-09-05T03:38:32.362Z,94.37
2018-09-05T03:39:36.657Z,88.35
2018-09-05T03:40:41.010Z,106.00
2018-09-05T03:41:45.172Z,87.53
2018-09-05T03:42:49.467Z,96.25
2018-09-05T03:43:53.719Z,97.20
2018-09-05T03:44:58.290Z,90.45
2018-09-05T03:46:02.471Z,87.00
2018-09-05T03:47:07.043Z,93.42
2018-09-05T03:48:11.484Z,104.38
2018-09-05T03:49:15.666Z,98.40
2018-09-05T03:50:19.849Z,90.22
2018-09-05T03:51:24.040Z,96.40
2018-09-05T03:52:28.189Z,96.00
2018-09-05T03:53:32.647Z,94.28
2018-09-05T03:54:36.781Z,87.90
2018-09-05T03:55:40.975Z,94.32
2018-09-05T03:56:45.186Z,88.20
2018-09-05T03:57:49.389Z,97.42
2018-09-05T03:58:53.633Z,82.33
2018-09-05T03:59:57.871Z,92.22
2018-09-05T04:01:02.075Z,92.47
2018-09-05T04:02:06.294Z,97.33
2018-09-05T04:03:10.825Z,96.60
2018-09-05T04:04:15.212Z,94.28
2018-09-05T04:05:19.455Z,104.45
2018-09-05T04:06:23.803Z,88.78
2018-09-05T04:07:28.524Z,89.87
2018-09-05T04:08:32.722Z,84.83
2018-09-05T04:09:36.939Z,80.95
2018-09-05T04:10:41.221Z,78.57
2018-09-05T04:11:45.474Z,91.53
2018-09-05T04:12:49.673Z,88.35
2018-09-05T04:13:53.902Z,84.95
2018-09-05T04:14:58.131Z,87.08
2018-09-05T04:16:02.522Z,85.87
2018-09-05T04:17:06.842Z,84.70
2018-09-05T04:18:11.088Z,84.07
2018-09-05T04:19:15.423Z,76.82
2018-09-05T04:20:19.879Z,85.03
2018-09-05T04:21:24.061Z,80.07
2018-09-05T04:22:28.234Z,87.78
2018-09-05T04:23:47.993Z,87.37
2018-09-05T04:24:52.215Z,86.47
2018-09-05T04:25:56.457Z,84.03
2018-09-05T04:27:01.003Z,78.47
2018-09-05T04:28:05.240Z,75.90
2018-09-05T04:29:09.453Z,78.25
2018-09-05T04:30:13.651Z,83.42
2018-09-05T04:31:17.848Z,79.17
2018-09-05T04:32:22.088Z,79.90
2018-09-05T04:33:26.251Z,79.35
2018-09-05T04:34:30.437Z,83.67
2018-09-05T04:35:34.660Z,76.22
2018-09-05T04:36:38.866Z,82.62
2018-09-05T04:37:43.087Z,81.25
2018-09-05T04:38:47.294Z,89.07
2018-09-05T04:39:51.689Z,81.25
2018-09-05T04:40:55.882Z,80.38
2018-09-05T04:42:00.119Z,76.47
2018-09-05T04:43:04.323Z,84.87
2018-09-05T04:44:08.931Z,81.45
2018-09-05T04:45:13.076Z,89.67
2018-09-05T04:46:17.364Z,88.00
2018-09-05T04:47:22.031Z,92.60
2018-09-05T04:48:26.265Z,85.87
2018-09-05T04:49:30.438Z,79.25
2018-09-05T04:50:34.631Z,86.15
2018-09-05T04:51:39.068Z,87.25
2018-09-05T04:52:43.477Z,87.85
2018-09-05T04:53:47.664Z,95.83
2018-09-05T04:54:51.922Z,86.40
2018-09-05T04:55:56.116Z,88.67
2018-09-05T04:57:00.270Z,91.85
2018-09-05T04:58:04.464Z,99.60
2018-09-05T04:59:08.841Z,94.35
2018-09-05T05:00:12.989Z,96.28
2018-09-05T05:01:17.421Z,87.75
2018-09-05T05:02:21.611Z,102.40
2018-09-05T05:03:26.190Z,90.87
2018-09-05T05:04:31.120Z,91.92
2018-09-05T05:05:35.501Z,95.22
2018-09-05T05:06:39.610Z,99.28
2018-09-05T05:07:43.778Z,87.40
2018-09-05T05:08:47.958Z,88.47
2018-09-05T05:09:52.121Z,86.17
2018-09-05T05:10:56.319Z,81.08
2018-09-05T05:12:00.455Z,88.78
2018-09-05T05:13:04.914Z,81.12
2018-09-05T05:14:09.345Z,80.90
2018-09-05T05:15:13.517Z,80.85
2018-09-05T05:16:17.690Z,97.97
2018-09-05T05:17:21.869Z,85.60
2018-09-05T05:18:26.082Z,87.10
2018-09-05T05:19:30.403Z,85.53
2018-09-05T05:20:34.773Z,83.03
2018-09-05T05:21:38.941Z,79.15
2018-09-05T05:22:43.111Z,68.75
2018-09-05T05:23:47.542Z,76.00
2018-09-05T05:24:51.730Z,80.05
2018-09-05T05:25:55.942Z,79.22
2018-09-05T05:27:00.122Z,77.22
2018-09-05T05:28:04.898Z,72.78
2018-09-05T05:29:09.129Z,71.72
2018-09-05T05:30:13.439Z,79.20
2018-09-05T05:31:17.656Z,78.42
2018-09-05T05:32:21.937Z,71.85
2018-09-05T05:33:26.401Z,75.35
2018-09-05T05:34:30.659Z,75.75
2018-09-05T05:35:34.817Z,81.90
2018-09-05T05:36:38.966Z,76.17
2018-09-05T05:37:43.297Z,84.80
2018-09-05T05:38:47.795Z,75.08
2018-09-05T05:39:51.967Z,80.32
2018-09-05T05:40:56.150Z,82.15
2018-09-05T05:42:00.373Z,74.80
2018-09-05T05:43:04.723Z,76.17
2018-09-05T05:44:08.857Z,74.17
2018-09-05T05:45:13.040Z,81.20
2018-09-05T05:46:17.311Z,81.90
2018-09-05T05:47:21.854Z,72.12
2018-09-05T05:48:26.023Z,80.30
2018-09-05T05:49:30.270Z,75.00
2018-09-05T05:50:34.468Z,75.20
2018-09-05T05:51:38.707Z,69.15
2018-09-05T05:52:42.902Z,76.50
2018-09-05T05:53:47.396Z,74.05
2018-09-05T05:54:51.594Z,66.77
2018-09-05T05:55:55.746Z,69.30
2018-09-05T05:56:59.952Z,71.80
2018-09-05T05:58:04.118Z,72.55
2018-09-05T05:59:08.315Z,61.90
2018-09-05T06:00:12.822Z,70.20
2018-09-05T06:01:17.630Z,70.78
2018-09-05T06:02:21.948Z,57.93
2018-09-05T06:03:26.292Z,66.53
2018-09-05T06:04:30.678Z,64.42
2018-09-05T06:05:35.035Z,64.35
2018-09-05T06:06:39.475Z,63.45
2018-09-05T06:07:44.020Z,69.87
2018-09-05T06:08:48.227Z,63.20
2018-09-05T06:09:52.426Z,71.20
2018-09-05T06:10:56.614Z,66.10
2018-09-05T06:12:00.777Z,71.77
2018-09-05T06:13:04.994Z,67.35
2018-09-05T06:14:09.262Z,74.00
2018-09-05T06:15:13.429Z,66.50
2018-09-05T06:16:17.726Z,68.00
2018-09-05T06:17:21.964Z,57.78
2018-09-05T06:18:26.234Z,61.60
2018-09-05T06:19:30.432Z,57.83
2018-09-05T06:20:34.658Z,61.05
2018-09-05T06:21:38.936Z,60.73
2018-09-05T06:22:43.095Z,61.02
2018-09-05T06:23:47.385Z,60.50
2018-09-05T06:24:51.609Z,55.58
2018-09-05T06:25:55.835Z,53.55
2018-09-05T06:27:00.182Z,59.98
2018-09-05T06:28:04.442Z,64.07
2018-09-05T06:29:08.676Z,67.35
2018-09-05T06:30:12.900Z,60.80
2018-09-05T06:31:17.298Z,55.63
2018-09-05T06:32:21.337Z,47.15
2018-09-05T06:33:25.642Z,50.95
2018-09-05T06:34:29.892Z,48.00
2018-09-05T06:35:34.196Z,47.30
2018-09-05T06:36:38.442Z,50.28
2018-09-05T06:37:42.649Z,49.73
2018-09-05T06:38:46.874Z,50.08
2018-09-05T06:39:51.100Z,52.13
2018-09-05T06:40:55.544Z,54.58
2018-09-05T06:41:59.708Z,54.00
2018-09-05T06:43:03.875Z,57.40
2018-09-05T06:44:08.670Z,51.10
2018-09-05T06:45:13.080Z,48.60
2018-09-05T06:46:17.485Z,55.55
2018-09-05T06:47:22.071Z,58.92
2018-09-05T06:48:26.328Z,49.85
2018-09-05T06:49:30.540Z,48.30
2018-09-05T06:50:34.816Z,55.30
2018-09-05T06:51:39.072Z,46.18
2018-09-05T06:52:43.536Z,50.83
2018-09-05T06:53:47.701Z,45.70
2018-09-05T06:54:51.911Z,45.48
2018-09-05T06:55:56.200Z,47.55
2018-09-05T06:57:00.476Z,51.53
2018-09-05T06:58:05.018Z,43.30
2018-09-05T06:59:09.236Z,44.23
2018-09-05T07:00:14.253Z,44.67
2018-09-05T07:01:18.967Z,47.60
2018-09-05T07:02:23.282Z,45.50
2018-09-05T07:03:27.880Z,48.48
2018-09-05T07:04:32.328Z,48.78
2018-09-05T07:05:36.523Z,54.08
2018-09-05T07:06:40.750Z,51.10
2018-09-05T07:07:44.985Z,62.90
2018-09-05T07:08:49.280Z,42.43
2018-09-05T07:09:53.632Z,62.45
2018-09-05T07:10:58.072Z,48.23
2018-09-05T07:12:02.319Z,51.88
2018-09-05T07:13:06.699Z,47.75
2018-09-05T07:14:11.094Z,49.10
2018-09-05T07:15:15.219Z,53.28
2018-09-05T07:16:19.510Z,53.02
2018-09-05T07:17:23.862Z,44.80
2018-09-05T07:18:28.152Z,57.45
2018-09-05T07:19:32.580Z,48.63
2018-09-05T07:20:37.241Z,45.50
2018-09-05T07:21:41.536Z,56.08
2018-09-05T07:22:45.834Z,48.98
2018-09-05T07:23:50.015Z,49.85
2018-09-05T07:24:54.281Z,45.40
2018-09-05T07:25:58.420Z,47.30
2018-09-05T07:27:02.611Z,50.83
2018-09-05T07:28:06.876Z,49.00
2018-09-05T07:29:11.117Z,51.98
2018-09-05T07:30:16.740Z,66.10
2018-09-05T07:31:20.927Z,55.78
2018-09-05T07:32:25.320Z,58.65
2018-09-05T07:33:29.556Z,55.35
2018-09-05T07:34:34.115Z,59.50
2018-09-05T07:35:38.314Z,67.75
2018-09-05T07:36:42.759Z,65.90
2018-09-05T07:37:46.989Z,57.23
2018-09-05T07:38:51.214Z,64.95
2018-09-05T07:39:55.472Z,58.55
2018-09-05T07:40:59.928Z,62.88
2018-09-05T07:42:04.293Z,62.80
2018-09-05T07:43:08.513Z,65.22
2018-09-05T07:44:12.907Z,56.85
2018-09-05T07:45:17.736Z,57.00
2018-09-05T07:46:22.031Z,60.23
2018-09-05T07:47:26.988Z,60.43
2018-09-05T07:48:31.211Z,57.78
2018-09-05T07:49:35.534Z,63.10
2018-09-05T07:50:39.888Z,58.33
2018-09-05T07:51:44.289Z,53.75
2018-09-05T07:52:49.157Z,64.15
2018-09-05T07:53:53.503Z,62.00
2018-09-05T07:54:57.920Z,65.47
2018-09-05T07:56:02.096Z,61.60
2018-09-05T07:57:06.279Z,58.58
2018-09-05T07:58:10.442Z,58.95
2018-09-05T07:59:14.801Z,59.55
2018-09-05T08:00:18.989Z,62.08
2018-09-05T08:01:23.212Z,59.93
2018-09-05T08:02:27.569Z,60.00
2018-09-05T08:03:31.730Z,63.25
2018-09-05T08:04:35.961Z,61.58
2018-09-05T08:05:40.264Z,56.48
2018-09-05T08:06:44.437Z,61.33
2018-09-05T08:07:48.583Z,60.30
2018-09-05T08:08:52.765Z,66.35
2018-09-05T08:09:56.946Z,62.13
2018-09-05T08:11:01.115Z,63.28
2018-09-05T08:12:05.328Z,62.58
2018-09-05T08:13:09.516Z,65.32
2018-09-05T08:14:13.699Z,55.83
2018-09-05T08:15:17.861Z,62.60
2018-09-05T08:16:22.270Z,59.18
2018-09-05T08:17:26.572Z,57.65
2018-09-05T08:18:30.768Z,55.45
2018-09-05T08:19:35.090Z,58.13
2018-09-05T08:20:39.266Z,59.13
2018-09-05T08:21:43.567Z,76.45
2018-09-05T08:22:47.802Z,58.95
2018-09-05T08:23:52.023Z,62.00
2018-09-05T08:24:56.213Z,62.25
2018-09-05T08:26:00.593Z,56.48
2018-09-05T08:27:04.801Z,52.48
2018-09-05T08:28:08.936Z,61.75
2018-09-05T08:29:14.462Z,51.92
2018-09-05T08:30:18.745Z,58.87
2018-09-05T08:31:23.052Z,56.90
2018-09-05T08:32:27.306Z,54.13
2018-09-05T08:33:31.491Z,60.52
2018-09-05T08:34:35.725Z,55.50
2018-09-05T08:35:40.197Z,54.25
2018-09-05T08:36:44.319Z,60.95
2018-09-05T08:37:48.510Z,57.93
2018-09-05T08:38:52.731Z,59.20
2018-09-05T08:39:56.767Z,54.93
2018-09-05T08:41:05.098Z,51.65
2018-09-05T08:42:09.497Z,56.70
2018-09-05T08:43:13.715Z,52.43
2018-09-05T08:44:17.985Z,52.65
2018-09-05T08:45:22.409Z,51.28
2018-09-05T08:46:26.339Z,57.62
2018-09-05T08:47:31.244Z,61.50
2018-09-05T08:48:35.530Z,78.02
2018-09-05T08:50:07.427Z,49.83
2018-09-05T08:51:11.670Z,59.58
2018-09-05T08:52:15.838Z,51.10
2018-09-05T08:53:20.267Z,71.07
2018-09-05T08:54:24.447Z,48.20
2018-09-05T08:55:28.765Z,49.55
2018-09-05T08:56:33.054Z,45.48
2018-09-05T08:57:37.256Z,53.42
2018-09-05T08:58:41.534Z,47.40
2018-09-05T08:59:45.720Z,49.83
2018-09-05T09:00:49.943Z,43.10
2018-09-05T09:01:54.139Z,47.85
2018-09-05T09:02:58.332Z,45.92
2018-09-05T09:04:02.470Z,45.00
2018-09-05T09:05:07.042Z,42.10
2018-09-05T09:06:11.246Z,39.95
2018-09-05T09:07:15.443Z,41.77
2018-09-05T09:08:19.657Z,42.90
2018-09-05T09:09:23.810Z,43.55
2018-09-05T09:10:28.099Z,44.33
2018-09-05T09:11:32.321Z,40.50
2018-09-05T09:12:36.588Z,41.80
2018-09-05T09:13:40.802Z,44.20
2018-09-05T09:14:44.951Z,51.77
2018-09-05T09:15:49.542Z,51.90
2018-09-05T09:16:53.807Z,46.25
2018-09-05T09:17:58.153Z,46.68
2018-09-05T09:19:02.361Z,52.40
2018-09-05T09:20:06.814Z,46.23
2018-09-05T09:21:10.989Z,48.30
2018-09-05T09:22:15.212Z,42.67
2018-09-05T09:23:19.808Z,49.43
2018-09-05T09:24:24.043Z,43.78
2018-09-05T09:25:28.308Z,44.70
2018-09-05T09:26:32.588Z,44.67
2018-09-05T09:27:37.201Z,47.20
2018-09-05T09:28:41.374Z,47.60
2018-09-05T09:29:46.383Z,44.13
2018-09-05T09:30:50.658Z,46.03
2018-09-05T09:31:54.859Z,43.27
2018-09-05T09:32:59.084Z,46.92
2018-09-05T09:34:03.671Z,42.17
2018-09-05T09:35:08.099Z,45.63
2018-09-05T09:36:12.288Z,51.30
2018-09-05T09:37:16.490Z,43.90
2018-09-05T09:38:20.644Z,43.17
2018-09-05T09:39:24.992Z,47.97
2018-09-05T09:40:29.252Z,43.33
2018-09-05T09:41:33.448Z,47.00
2018-09-05T09:42:37.657Z,42.17
2018-09-05T09:43:41.871Z,45.30
2018-09-05T09:44:46.076Z,42.40
2018-09-05T09:45:50.293Z,46.60
2018-09-05T09:46:54.509Z,45.00
2018-09-05T09:47:58.995Z,43.90
2018-09-05T09:49:03.260Z,41.73
2018-09-05T09:50:07.705Z,53.53
2018-09-05T09:51:11.935Z,42.73
2018-09-05T09:52:22.240Z,50.70
2018-09-05T09:53:26.735Z,43.37
2018-09-05T09:54:30.970Z,48.30
2018-09-05T09:55:35.200Z,44.47
2018-09-05T09:56:39.405Z,49.50
2018-09-05T09:57:43.602Z,44.00
2018-09-05T09:58:48.013Z,44.93
2018-09-05T09:59:52.141Z,47.80
2018-09-05T10:01:01.688Z,45.50
2018-09-05T10:02:11.238Z,43.50
2018-09-05T10:03:20.657Z,43.70
2018-09-05T10:04:30.235Z,51.80
2018-09-05T10:05:39.609Z,37.97
2018-09-05T10:06:48.106Z,43.70
2018-09-05T10:07:57.343Z,65.67
2018-09-05T10:09:07.125Z,40.63
2018-09-05T10:10:17.193Z,42.60
2018-09-05T10:11:25.367Z,46.70
2018-09-05T10:12:34.759Z,45.83
2018-09-05T10:13:44.225Z,43.57
2018-09-05T10:15:54.280Z,49.30
2018-09-05T10:17:03.862Z,45.00
2018-09-05T10:18:13.228Z,37.67
2018-09-05T10:19:17.782Z,46.33
2018-09-05T10:20:21.985Z,39.90
2018-09-05T10:21:26.190Z,45.30
2018-09-05T10:22:30.910Z,44.27
2018-09-05T10:23:35.055Z,47.90
2018-09-05T10:24:39.522Z,42.53
2018-09-05T10:25:43.756Z,45.10
2018-09-05T10:26:48.103Z,55.20
2018-09-05T10:27:52.356Z,49.43
2018-09-05T10:28:56.610Z,47.47
2018-09-05T10:30:00.890Z,51.53
2018-09-05T10:31:05.138Z,50.40
2018-09-05T10:32:09.344Z,50.83
2018-09-05T10:33:13.759Z,48.40
2018-09-05T10:34:17.929Z,52.40
2018-09-05T10:35:22.186Z,47.70
2018-09-05T10:36:26.366Z,45.03
2018-09-05T10:37:30.865Z,47.23
2018-09-05T10:38:35.273Z,46.73
2018-09-05T10:39:39.464Z,48.03
2018-09-05T10:40:43.842Z,47.07
2018-09-05T10:41:48.164Z,49.60
2018-09-05T10:42:52.362Z,62.33
2018-09-05T10:43:56.571Z,53.00
2018-09-05T10:45:00.785Z,51.33
2018-09-05T10:46:04.974Z,69.77
2018-09-05T10:47:09.171Z,49.80
2018-09-05T10:48:14.583Z,51.70
2018-09-05T10:49:18.957Z,50.70
2018-09-05T10:50:23.166Z,49.97
2018-09-05T10:51:32.600Z,54.63
2018-09-05T10:52:36.804Z,62.17
2018-09-05T10:53:41.003Z,54.40
2018-09-05T10:54:45.182Z,52.03
2018-09-05T10:55:49.520Z,50.60
2018-09-05T10:56:53.700Z,49.30
2018-09-05T10:57:57.993Z,51.73
2018-09-05T10:59:02.187Z,52.50
2018-09-05T11:00:06.474Z,47.80
2018-09-05T11:01:10.669Z,56.67
2018-09-05T11:02:14.838Z,48.00
2018-09-05T11:03:19.010Z,43.93
2018-09-05T11:04:23.294Z,47.37
2018-09-05T11:05:27.473Z,49.13
2018-09-05T11:06:31.626Z,49.00
2018-09-05T11:07:35.776Z,52.50
2018-09-05T11:08:39.944Z,49.50
2018-09-05T11:09:44.146Z,46.80
2018-09-05T11:10:48.387Z,52.43
2018-09-05T11:11:52.496Z,43.90
2018-09-05T11:12:56.658Z,43.90
2018-09-05T11:14:00.848Z,47.37
2018-09-05T11:15:05.047Z,53.27
2018-09-05T11:16:09.221Z,49.00
2018-09-05T11:17:13.426Z,51.53
2018-09-05T11:18:17.557Z,51.90
2018-09-05T11:19:21.784Z,46.60
2018-09-05T11:20:25.981Z,48.07
2018-09-05T11:21:30.238Z,46.33
2018-09-05T11:22:34.476Z,60.60
2018-09-05T11:23:45.300Z,45.10
2018-09-05T11:24:49.673Z,44.73
2018-09-05T11:25:53.894Z,41.50
2018-09-05T11:26:58.240Z,40.03
2018-09-05T11:28:02.529Z,41.00
2018-09-05T11:29:07.056Z,40.80
2018-09-05T11:30:11.167Z,40.10
2018-09-05T11:31:15.421Z,38.17
2018-09-05T11:32:19.626Z,38.40
2018-09-05T11:33:23.786Z,43.43
2018-09-05T11:34:27.973Z,40.00
2018-09-05T11:35:32.144Z,41.20
2018-09-05T11:36:36.382Z,57.13
2018-09-05T11:37:40.619Z,41.03
2018-09-05T11:38:44.894Z,47.03
2018-09-05T11:39:49.043Z,36.37
2018-09-05T11:40:53.304Z,40.63
2018-09-05T11:41:57.495Z,39.77
2018-09-05T11:43:01.706Z,37.93
2018-09-05T11:44:06.251Z,43.77
2018-09-05T11:45:10.441Z,38.37
2018-09-05T11:46:14.978Z,39.43
2018-09-05T11:47:19.204Z,38.60
2018-09-05T11:48:23.702Z,36.20
2018-09-05T11:49:27.889Z,36.10
2018-09-05T11:50:32.084Z,35.30
2018-09-05T11:51:36.642Z,51.73
2018-09-05T11:52:40.884Z,40.07
2018-09-05T11:53:45.068Z,49.80
2018-09-05T11:54:49.264Z,36.13
2018-09-05T11:55:53.430Z,35.80
2018-09-05T11:56:57.609Z,42.43
2018-09-05T11:58:01.831Z,36.50
2018-09-05T11:59:06.021Z,38.27
2018-09-05T12:00:10.259Z,37.73
2018-09-05T12:01:14.431Z,35.30
2018-09-05T12:02:18.828Z,38.63
2018-09-05T12:03:23.009Z,42.70
2018-09-05T12:04:27.200Z,43.07
2018-09-05T12:05:31.392Z,41.93
2018-09-05T12:06:35.763Z,45.13
2018-09-05T12:07:39.929Z,46.87
2018-09-05T12:08:44.173Z,41.23
2018-09-05T12:09:48.350Z,48.63
2018-09-05T12:10:52.575Z,42.60
2018-09-05T12:11:56.798Z,46.40
2018-09-05T12:13:00.949Z,38.10
2018-09-05T12:14:05.167Z,35.80
2018-09-05T12:15:09.360Z,42.40
2018-09-05T12:16:13.542Z,39.93
2018-09-05T12:17:17.794Z,39.17
2018-09-05T12:18:21.974Z,38.10
2018-09-05T12:19:26.203Z,37.37
2018-09-05T12:20:30.430Z,37.23
2018-09-05T12:21:34.603Z,36.23
2018-09-05T12:22:38.825Z,46.30
2018-09-05T12:23:43.010Z,36.47
2018-09-05T12:24:47.276Z,37.37
2018-09-05T12:25:51.487Z,36.03
2018-09-05T12:26:55.665Z,34.17
2018-09-05T12:27:59.862Z,35.80
2018-09-05T12:29:06.658Z,33.47
2018-09-05T12:30:11.047Z,35.50
2018-09-05T12:31:15.211Z,34.03
2018-09-05T12:32:19.515Z,34.40
2018-09-05T12:33:23.799Z,34.37
2018-09-05T12:34:27.999Z,34.00
2018-09-05T12:35:32.249Z,32.90
2018-09-05T12:36:36.463Z,33.93
2018-09-05T12:37:40.843Z,31.33
2018-09-05T12:38:44.988Z,33.67
2018-09-05T12:39:49.233Z,31.47
2018-09-05T12:40:53.668Z,34.53
2018-09-05T12:41:57.880Z,29.20
2018-09-05T12:43:02.121Z,28.00
2018-09-05T12:44:06.308Z,35.33
2018-09-05T12:45:10.864Z,32.80
2018-09-05T12:46:15.074Z,31.03
2018-09-05T12:47:19.350Z,30.43
2018-09-05T12:48:23.862Z,32.83
2018-09-05T12:49:28.259Z,31.80
2018-09-05T12:50:32.452Z,29.20
2018-09-05T12:51:36.689Z,29.37
2018-09-05T12:52:40.880Z,30.00
2018-09-05T12:53:45.063Z,29.23
2018-09-05T12:54:49.650Z,28.50
2018-09-05T12:55:53.874Z,30.00
2018-09-05T12:56:58.071Z,33.00
2018-09-05T12:58:02.262Z,30.57
2018-09-05T12:59:06.650Z,31.17
2018-09-05T13:00:10.868Z,29.00
2018-09-05T13:01:15.187Z,34.27
2018-09-05T13:02:19.449Z,30.30
2018-09-05T13:03:23.819Z,28.20
2018-09-05T13:04:28.021Z,30.80
2018-09-05T13:05:32.249Z,28.87
2018-09-05T13:06:36.879Z,28.23
2018-09-05T13:07:41.405Z,31.90
2018-09-05T13:08:45.568Z,27.77
2018-09-05T13:09:49.757Z,30.17
2018-09-05T13:10:53.972Z,35.27
2018-09-05T13:11:58.176Z,28.93
2018-09-05T13:13:02.522Z,33.97
2018-09-05T13:14:06.720Z,36.97
2018-09-05T13:15:11.347Z,27.47
2018-09-05T13:16:15.893Z,29.33
2018-09-05T13:17:20.225Z,30.10
2018-09-05T13:18:24.414Z,27.33
2018-09-05T13:19:28.684Z,28.37
2018-09-05T13:20:32.853Z,31.47
2018-09-05T13:21:37.090Z,26.30
2018-09-05T13:22:41.262Z,25.30
2018-09-05T13:23:45.514Z,27.73
2018-09-05T13:24:50.189Z,27.70
2018-09-05T13:25:54.590Z,30.70
2018-09-05T13:26:59.086Z,33.57
2018-09-05T13:28:03.196Z,31.70
2018-09-05T13:29:07.406Z,31.33
2018-09-05T13:30:11.598Z,32.33
2018-09-05T13:31:15.789Z,27.60
2018-09-05T13:32:19.936Z,30.60
2018-09-05T13:33:24.267Z,29.40
2018-09-05T13:34:28.491Z,26.40
2018-09-05T13:35:32.733Z,29.93
2018-09-05T13:36:36.922Z,25.67
2018-09-05T13:37:41.082Z,25.83
2018-09-05T13:38:45.248Z,32.10
2018-09-05T13:39:49.517Z,28.43
2018-09-05T13:40:53.728Z,26.60
2018-09-05T13:41:57.908Z,30.50
2018-09-05T13:43:02.054Z,28.50
2018-09-05T13:44:06.543Z,25.90
2018-09-05T13:45:10.840Z,34.30
2018-09-05T13:46:15.027Z,29.43
2018-09-05T13:47:19.208Z,35.67
2018-09-05T13:48:23.609Z,28.23
2018-09-05T13:49:27.802Z,27.37